createdAt,value
2022-09-03T00:00:25.562Z,25.99
2022-09-03T00:03:21.990Z,25.99
2022-09-03T00:06:17.596Z,26.00
2022-09-03T00:09:14.134Z,26.00
2022-09-03T00:12:11.627Z,26.00
2022-09-03T00:15:06.707Z,26.01
2022-09-03T00:18:00.064Z,26.02
2022-09-03T00:20:55.363Z,26.03
2022-09-03T00:23:49.023Z,26.03
2022-09-03T00:26:43.443Z,26.02
2022-09-03T00:29:37.797Z,26.02
2022-09-03T00:32:36.231Z,26.01
2022-09-03T00:35:31.994Z,26.00
2022-09-03T00:38:23.725Z,26.00
2022-09-03T00:41:31.725Z,26.00
2022-09-03T00:44:40.048Z,26.00
2022-09-03T00:47:38.709Z,25.99
2022-09-03T00:50:42.604Z,26.00
2022-09-03T00:53:40.369Z,26.00
2022-09-03T00:56:38.152Z,26.00
2022-09-03T00:59:38.623Z,26.00
2022-09-03T01:02:38.324Z,26.01
2022-09-03T01:05:43.604Z,26.02
2022-09-03T01:08:50.965Z,26.01
2022-09-03T01:11:51.856Z,26.00
2022-09-03T01:14:52.445Z,26.00
2022-09-03T01:17:52.950Z,26.00
2022-09-03T01:20:53.489Z,26.01
2022-09-03T01:24:07.501Z,26.01
2022-09-03T01:27:16.519Z,26.02
2022-09-03T01:30:09.325Z,26.02
2022-09-03T01:33:06.307Z,26.02
2022-09-03T01:36:05.614Z,26.00
2022-09-03T01:39:01.238Z,26.00
2022-09-03T01:42:20.917Z,25.99
2022-09-03T01:45:29.269Z,25.97
2022-09-03T01:48:35.060Z,25.95
2022-09-03T01:51:26.896Z,25.95
2022-09-03T01:54:38.221Z,25.95
2022-09-03T01:57:42.062Z,25.95
2022-09-03T02:00:35.601Z,25.95
2022-09-03T02:03:33.876Z,25.95
2022-09-03T02:06:23.606Z,25.94
2022-09-03T02:09:14.257Z,25.92
2022-09-03T02:12:09.335Z,25.90
2022-09-03T02:14:59.329Z,25.90
2022-09-03T02:17:53.008Z,25.90
2022-09-03T02:20:43.129Z,25.91
2022-09-03T02:23:33.305Z,25.90
2022-09-03T02:26:25.671Z,25.89
2022-09-03T02:29:17.357Z,25.88
2022-09-03T02:32:08.149Z,25.87
2022-09-03T02:34:58.103Z,25.87
2022-09-03T02:37:48.099Z,25.87
2022-09-03T02:40:38.091Z,25.85
2022-09-03T02:43:33.245Z,25.85
2022-09-03T02:46:27.812Z,25.84
2022-09-03T02:49:18.104Z,25.85
2022-09-03T02:52:11.921Z,25.83
2022-09-03T02:55:01.851Z,25.82
2022-09-03T02:57:51.775Z,25.82
2022-09-03T03:00:42.338Z,25.80
2022-09-03T03:03:32.920Z,25.78
2022-09-03T03:06:23.292Z,25.76
2022-09-03T03:09:13.292Z,25.75
2022-09-03T03:12:03.161Z,25.74
2022-09-03T03:14:53.164Z,25.72
2022-09-03T03:17:42.915Z,25.71
2022-09-03T03:20:32.753Z,25.70
2022-09-03T03:23:22.932Z,25.68
2022-09-03T03:26:15.222Z,25.66
2022-09-03T03:29:05.855Z,25.67
2022-09-03T03:31:55.455Z,25.67
2022-09-03T03:34:45.165Z,25.68
2022-09-03T03:37:36.269Z,25.67
2022-09-03T03:40:26.709Z,25.67
2022-09-03T03:43:16.722Z,25.66
2022-09-03T03:46:07.092Z,25.65
2022-09-03T03:48:56.530Z,25.65
2022-09-03T03:51:46.235Z,25.64
2022-09-03T03:54:36.153Z,25.64
2022-09-03T03:57:26.212Z,25.65
2022-09-03T04:00:18.953Z,25.64
2022-09-03T04:03:08.839Z,25.64
2022-09-03T04:06:02.832Z,25.63
2022-09-03T04:08:52.977Z,25.63
2022-09-03T04:11:43.052Z,25.63
2022-09-03T04:14:32.966Z,25.64
2022-09-03T04:17:25.375Z,25.63
2022-09-03T04:20:16.169Z,25.63
2022-09-03T04:23:07.184Z,25.62
2022-09-03T04:25:57.265Z,25.62
2022-09-03T04:28:47.558Z,25.62
2022-09-03T04:31:39.114Z,25.62
2022-09-03T04:34:30.114Z,25.61
2022-09-03T04:37:20.931Z,25.59
2022-09-03T04:40:12.590Z,25.59
2022-09-03T04:43:04.964Z,25.58
2022-09-03T04:45:56.854Z,25.57
2022-09-03T04:48:49.213Z,25.56
2022-09-03T04:51:39.204Z,25.54
2022-09-03T04:54:29.895Z,25.53
2022-09-03T04:57:20.069Z,25.52
2022-09-03T05:00:12.548Z,25.52
2022-09-03T05:03:05.367Z,25.51
2022-09-03T05:05:59.440Z,25.51
2022-09-03T05:08:51.242Z,25.50
2022-09-03T05:11:41.093Z,25.49
2022-09-03T05:14:30.646Z,25.49
2022-09-03T05:17:20.716Z,25.52
2022-09-03T05:20:12.168Z,25.76
2022-09-03T05:23:04.854Z,25.94
2022-09-03T05:26:00.100Z,26.06
2022-09-03T05:28:53.785Z,26.12
2022-09-03T05:31:44.012Z,26.16
2022-09-03T05:34:34.093Z,26.20
2022-09-03T05:37:24.289Z,26.21
2022-09-03T05:40:15.032Z,26.20
2022-09-03T05:43:08.520Z,26.19
2022-09-03T05:46:02.583Z,26.18
2022-09-03T05:48:52.532Z,26.22
2022-09-03T05:51:43.692Z,26.23
2022-09-03T05:54:33.509Z,26.23
2022-09-03T05:57:23.838Z,26.24
2022-09-03T06:00:15.715Z,26.27
2022-09-03T06:03:05.932Z,26.30
2022-09-03T06:05:57.594Z,26.32
2022-09-03T06:08:51.712Z,26.33
2022-09-03T06:11:42.864Z,26.35
2022-09-03T06:14:33.301Z,26.40
2022-09-03T06:17:23.022Z,26.45
2022-09-03T06:20:13.946Z,26.47
2022-09-03T06:23:04.182Z,26.51
2022-09-03T06:26:05.600Z,26.54
2022-09-03T06:28:56.357Z,26.59
2022-09-03T06:31:46.908Z,26.62
2022-09-03T06:34:36.866Z,26.68
2022-09-03T06:37:26.996Z,26.73
2022-09-03T06:40:22.609Z,26.75
2022-09-03T06:43:12.561Z,26.75
2022-09-03T06:46:04.831Z,26.73
2022-09-03T06:48:55.795Z,26.70
2022-09-03T06:51:45.896Z,26.67
2022-09-03T06:54:35.679Z,26.63
2022-09-03T06:57:25.622Z,26.62
2022-09-03T07:00:17.754Z,26.64
2022-09-03T07:03:08.170Z,26.67
2022-09-03T07:06:03.637Z,26.66
2022-09-03T07:08:54.599Z,26.66
2022-09-03T07:11:48.825Z,26.69
2022-09-03T07:14:38.773Z,26.73
2022-09-03T07:17:28.320Z,26.79
2022-09-03T07:20:18.138Z,26.81
2022-09-03T07:23:08.247Z,26.82
2022-09-03T07:26:00.483Z,26.82
2022-09-03T07:28:51.324Z,26.83
2022-09-03T07:31:43.684Z,26.84
2022-09-03T07:34:35.783Z,26.78
2022-09-03T07:37:27.421Z,26.67
2022-09-03T07:40:20.436Z,26.59
2022-09-03T07:43:10.606Z,26.56
2022-09-03T07:46:01.280Z,26.56
2022-09-03T07:48:52.176Z,26.55
2022-09-03T07:51:42.131Z,26.59
2022-09-03T07:54:32.468Z,26.66
2022-09-03T07:57:22.914Z,26.71
2022-09-03T08:00:17.806Z,26.78
2022-09-03T08:03:08.945Z,26.90
2022-09-03T08:06:04.330Z,27.03
2022-09-03T08:09:04.627Z,27.15
2022-09-03T08:11:55.508Z,27.24
2022-09-03T08:14:45.207Z,27.31
2022-09-03T08:17:35.126Z,27.40
2022-09-03T08:20:26.701Z,27.44
2022-09-03T08:23:17.042Z,27.48
2022-09-03T08:26:07.746Z,27.48
2022-09-03T08:28:57.812Z,27.43
2022-09-03T08:31:47.722Z,27.37
2022-09-03T08:34:38.356Z,27.29
2022-09-03T08:37:29.608Z,27.21
2022-09-03T08:40:19.537Z,27.12
2022-09-03T08:43:17.476Z,27.06
2022-09-03T08:46:07.845Z,27.04
2022-09-03T08:48:59.012Z,27.07
2022-09-03T08:51:51.687Z,27.17
2022-09-03T08:54:42.435Z,27.30
2022-09-03T08:57:41.693Z,27.46
2022-09-03T09:00:43.292Z,27.62
2022-09-03T09:03:43.715Z,27.74
2022-09-03T09:06:42.191Z,27.85
2022-09-03T09:09:40.969Z,28.00
2022-09-03T09:12:47.191Z,28.14
2022-09-03T09:15:48.132Z,28.24
2022-09-03T09:18:54.427Z,28.34
2022-09-03T09:21:49.164Z,28.50
2022-09-03T09:24:43.306Z,28.70
2022-09-03T09:27:33.824Z,28.86
2022-09-03T09:30:24.235Z,29.00
2022-09-03T09:33:15.133Z,29.10
2022-09-03T09:36:08.676Z,29.28
2022-09-03T09:39:09.306Z,29.49
2022-09-03T09:42:09.595Z,29.72
2022-09-03T09:45:09.830Z,29.93
2022-09-03T09:47:59.603Z,30.10
2022-09-03T09:50:49.328Z,30.22
2022-09-03T09:53:39.822Z,30.32
2022-09-03T09:56:30.131Z,30.43
2022-09-03T09:59:22.180Z,30.53
2022-09-03T10:02:22.147Z,30.58
2022-09-03T10:05:25.024Z,30.63
2022-09-03T10:08:25.954Z,30.66
2022-09-03T10:11:21.463Z,30.70
2022-09-03T10:14:20.392Z,30.73
2022-09-03T10:17:19.841Z,30.78
2022-09-03T10:20:30.795Z,30.80
2022-09-03T10:23:24.990Z,30.85
2022-09-03T10:26:18.858Z,30.83
2022-09-03T10:29:10.164Z,30.75
2022-09-03T10:32:11.746Z,30.64
2022-09-03T10:35:10.622Z,30.52
2022-09-03T10:38:12.045Z,30.44
2022-09-03T10:41:13.887Z,30.37
2022-09-03T10:44:27.124Z,30.27
2022-09-03T10:47:42.086Z,30.23
2022-09-03T10:50:35.474Z,30.17
2022-09-03T10:53:40.917Z,30.04
2022-09-03T10:56:39.885Z,29.92
2022-09-03T10:59:45.568Z,29.80
2022-09-03T11:02:54.001Z,29.67
2022-09-03T11:05:50.391Z,29.47
2022-09-03T11:08:44.217Z,29.36
2022-09-03T11:11:39.412Z,29.29
2022-09-03T11:14:38.089Z,29.32
2022-09-03T11:17:32.228Z,29.42
2022-09-03T11:20:25.158Z,29.51
2022-09-03T11:23:17.572Z,29.57
2022-09-03T11:26:13.551Z,29.56
2022-09-03T11:29:10.501Z,29.59
2022-09-03T11:32:03.742Z,29.67
2022-09-03T11:34:55.129Z,29.76
2022-09-03T11:37:55.154Z,29.85
2022-09-03T11:41:02.465Z,29.96
2022-09-03T11:43:53.304Z,30.06
2022-09-03T11:46:54.510Z,30.08
2022-09-03T11:49:50.839Z,30.04
2022-09-03T11:52:40.811Z,29.94
2022-09-03T11:55:43.323Z,29.80
2022-09-03T11:58:36.233Z,29.63
2022-09-03T12:01:28.637Z,29.57
2022-09-03T12:04:22.031Z,29.59
2022-09-03T12:07:50.916Z,29.64
2022-09-03T12:10:53.386Z,29.69
2022-09-03T12:13:53.056Z,29.70
2022-09-03T12:17:03.626Z,29.69
2022-09-03T12:19:56.396Z,29.66
2022-09-03T12:22:46.555Z,29.63
2022-09-03T12:25:36.335Z,29.57
2022-09-03T12:28:31.050Z,29.48
2022-09-03T12:31:22.997Z,29.43
2022-09-03T12:34:17.382Z,29.36
2022-09-03T12:40:34.714Z,29.26
2022-09-03T12:43:49.838Z,29.20
2022-09-03T12:46:40.429Z,29.15
2022-09-03T12:49:35.139Z,29.11
2022-09-03T12:52:30.868Z,29.01
2022-09-03T12:55:36.952Z,28.91
2022-09-03T12:58:35.616Z,28.83
2022-09-03T13:01:29.239Z,28.79
2022-09-03T13:04:26.807Z,28.78
2022-09-03T13:07:25.024Z,28.81
2022-09-03T13:10:25.117Z,28.84
2022-09-03T13:13:25.517Z,28.87
2022-09-03T13:16:54.234Z,28.85
2022-09-03T13:19:56.836Z,28.80
2022-09-03T13:23:00.100Z,28.80
2022-09-03T13:26:05.992Z,28.79
2022-09-03T13:29:18.733Z,28.78
2022-09-03T13:32:19.703Z,28.75
2022-09-03T13:35:19.662Z,28.72
2022-09-03T13:38:27.276Z,28.64
2022-09-03T13:41:26.467Z,28.59
2022-09-03T13:44:32.592Z,28.56
2022-09-03T13:47:32.463Z,28.55
2022-09-03T13:50:27.338Z,28.53
2022-09-03T13:53:26.518Z,28.49
2022-09-03T13:56:36.168Z,28.43
2022-09-03T13:59:35.500Z,28.37
2022-09-03T14:02:35.406Z,28.29
2022-09-03T14:05:40.974Z,28.24
2022-09-03T14:08:35.719Z,28.20
2022-09-03T14:11:36.719Z,28.17
2022-09-03T14:14:42.871Z,28.16
2022-09-03T14:17:43.118Z,28.10
2022-09-03T14:20:38.493Z,28.05
2022-09-03T14:23:37.863Z,27.96
2022-09-03T14:26:39.007Z,27.79
2022-09-03T14:29:32.719Z,27.49
2022-09-03T14:32:32.177Z,27.19
2022-09-03T14:35:58.215Z,26.94
2022-09-03T14:39:04.158Z,26.65
2022-09-03T14:42:24.955Z,26.10
2022-09-03T14:45:44.704Z,25.73
2022-09-03T14:49:07.500Z,25.44
2022-09-03T14:52:21.025Z,25.31
2022-09-03T14:55:34.713Z,25.29
2022-09-03T14:58:42.103Z,25.34
2022-09-03T15:01:39.041Z,25.48
2022-09-03T15:04:53.059Z,25.69
2022-09-03T15:07:50.905Z,25.89
2022-09-03T15:10:47.634Z,26.10
2022-09-03T15:13:44.012Z,26.23
2022-09-03T15:16:50.456Z,26.33
2022-09-03T15:19:59.173Z,26.44
2022-09-03T15:23:12.050Z,26.54
2022-09-03T15:26:20.241Z,26.60
2022-09-03T15:29:26.553Z,26.69
2022-09-03T15:32:27.833Z,26.74
2022-09-03T15:35:33.889Z,26.78
2022-09-03T15:38:36.805Z,26.84
2022-09-03T15:41:41.614Z,26.86
2022-09-03T15:44:43.709Z,26.86
2022-09-03T15:47:43.166Z,26.86
2022-09-03T15:50:54.925Z,26.80
2022-09-03T15:53:55.625Z,26.75
2022-09-03T15:56:56.755Z,26.76
2022-09-03T15:59:56.622Z,26.78
2022-09-03T16:02:52.396Z,26.76
2022-09-03T16:05:47.800Z,26.84
2022-09-03T16:08:45.328Z,26.94
2022-09-03T16:11:42.554Z,27.01
2022-09-03T16:14:37.206Z,27.06
2022-09-03T16:17:33.092Z,27.06
2022-09-03T16:20:27.249Z,27.05
2022-09-03T16:23:22.686Z,26.99
2022-09-03T16:26:19.803Z,26.94
2022-09-03T16:29:15.699Z,26.86
2022-09-03T16:32:19.525Z,26.85
2022-09-03T16:35:23.707Z,26.88
2022-09-03T16:38:35.515Z,26.87
2022-09-03T16:41:30.782Z,26.81
2022-09-03T16:44:25.191Z,26.74
2022-09-03T16:47:25.894Z,26.70
2022-09-03T16:50:28.938Z,26.66
2022-09-03T16:53:29.279Z,26.63
2022-09-03T16:56:34.372Z,26.57
2022-09-03T16:59:48.580Z,26.53
2022-09-03T17:03:13.819Z,26.51
2022-09-03T17:06:46.189Z,26.47
2022-09-03T17:09:52.975Z,26.57
2022-09-03T17:12:58.074Z,26.60
2022-09-03T17:15:57.002Z,26.62
2022-09-03T17:18:55.269Z,26.64
2022-09-03T17:21:57.245Z,26.64
2022-09-03T17:24:52.871Z,26.65
2022-09-03T17:27:51.703Z,26.70
2022-09-03T17:30:49.899Z,26.71
2022-09-03T17:33:57.921Z,26.69
2022-09-03T17:37:06.816Z,26.67
2022-09-03T17:40:20.226Z,26.66
2022-09-03T17:43:19.899Z,26.63
2022-09-03T17:46:22.994Z,26.57
2022-09-03T17:49:23.117Z,26.57
2022-09-03T17:52:28.030Z,26.58
2022-09-03T17:55:25.767Z,26.58
2022-09-03T17:58:20.499Z,26.54
2022-09-03T18:01:18.283Z,26.47
2022-09-03T18:04:28.277Z,26.43
2022-09-03T18:07:27.758Z,26.43
2022-09-03T18:10:26.827Z,26.39
2022-09-03T18:13:24.246Z,26.28
2022-09-03T18:16:20.533Z,26.20
2022-09-03T18:19:19.097Z,26.19
2022-09-03T18:22:26.665Z,26.23
2022-09-03T18:25:36.241Z,26.23
2022-09-03T18:28:51.002Z,26.21
2022-09-03T18:31:58.708Z,26.19
2022-09-03T18:35:07.402Z,26.18
2022-09-03T18:38:15.191Z,26.15
2022-09-03T18:41:31.935Z,26.12
2022-09-03T18:44:54.721Z,26.12
2022-09-03T18:48:21.487Z,26.15
2022-09-03T18:51:36.984Z,26.16
2022-09-03T18:55:07.793Z,26.19
2022-09-03T18:58:27.405Z,26.21
2022-09-03T19:01:48.103Z,26.24
2022-09-03T19:05:10.051Z,26.22
2022-09-03T19:08:25.307Z,26.18
2022-09-03T19:11:46.332Z,26.14
2022-09-03T19:15:02.959Z,26.06
2022-09-03T19:18:26.737Z,25.99
2022-09-03T19:21:46.493Z,25.93
2022-09-03T19:24:53.748Z,25.88
2022-09-03T19:28:13.693Z,25.90
2022-09-03T19:31:57.570Z,25.92
2022-09-03T19:35:23.832Z,25.96
2022-09-03T19:38:40.670Z,25.98
2022-09-03T19:41:52.082Z,26.08
2022-09-03T19:45:10.441Z,26.12
2022-09-03T19:48:27.715Z,26.19
2022-09-03T19:51:39.717Z,26.31
2022-09-03T19:54:48.658Z,26.37
2022-09-03T19:57:56.150Z,26.38
2022-09-03T20:01:04.022Z,26.37
2022-09-03T20:04:11.396Z,26.37
2022-09-03T20:07:22.290Z,26.39
2022-09-03T20:10:25.177Z,26.36
2022-09-03T20:13:17.380Z,26.32
2022-09-03T20:16:14.081Z,26.29
2022-09-03T20:19:13.597Z,26.28
2022-09-03T20:22:16.878Z,26.24
2022-09-03T20:25:27.006Z,26.23
2022-09-03T20:28:33.681Z,26.22
2022-09-03T20:31:34.009Z,26.19
2022-09-03T20:34:42.609Z,26.12
2022-09-03T20:37:41.873Z,26.04
2022-09-03T20:40:43.391Z,25.99
2022-09-03T20:44:03.749Z,25.98
2022-09-03T20:47:06.196Z,25.96
2022-09-03T20:50:05.477Z,25.96
2022-09-03T20:53:10.459Z,25.96
2022-09-03T20:56:11.396Z,26.03
2022-09-03T20:59:09.435Z,26.05
2022-09-03T21:02:07.107Z,26.08
2022-09-03T21:05:10.843Z,26.08
2022-09-03T21:08:11.306Z,26.09
2022-09-03T21:11:07.309Z,26.09
2022-09-03T21:14:05.546Z,26.09
2022-09-03T21:17:05.941Z,26.07
2022-09-03T21:20:10.566Z,26.11
2022-09-03T21:23:13.478Z,26.14
2022-09-03T21:26:13.914Z,26.12
2022-09-03T21:29:17.351Z,26.08
2022-09-03T21:32:16.891Z,26.06
2022-09-03T21:35:17.292Z,26.05
2022-09-03T21:38:09.644Z,26.05
2022-09-03T21:41:06.792Z,26.04
2022-09-03T21:44:03.945Z,26.00
2022-09-03T21:46:59.681Z,25.84
2022-09-03T21:49:57.802Z,25.63
2022-09-03T21:52:53.663Z,25.43
2022-09-03T21:55:52.288Z,25.30
2022-09-03T21:58:58.337Z,25.21
2022-09-03T22:02:00.373Z,25.16
2022-09-03T22:04:50.833Z,25.08
2022-09-03T22:07:55.480Z,25.01
2022-09-03T22:10:58.150Z,24.95
2022-09-03T22:13:57.458Z,24.90
2022-09-03T22:16:52.928Z,24.84
2022-09-03T22:19:43.125Z,24.76
2022-09-03T22:22:40.932Z,24.68
2022-09-03T22:25:41.947Z,24.63
2022-09-03T22:28:36.913Z,24.60
2022-09-03T22:31:35.562Z,24.61
2022-09-03T22:34:39.112Z,24.60
2022-09-03T22:37:47.389Z,24.59
2022-09-03T22:40:46.865Z,24.58
2022-09-03T22:43:44.446Z,24.56
2022-09-03T22:46:41.420Z,24.55
2022-09-03T22:49:42.262Z,24.54
2022-09-03T22:52:40.550Z,24.52
2022-09-03T22:55:30.664Z,24.54
2022-09-03T22:58:24.633Z,24.58
2022-09-03T23:01:23.247Z,24.60
2022-09-03T23:04:29.327Z,24.59
2022-09-03T23:07:28.340Z,24.59
2022-09-03T23:10:25.767Z,24.58
2022-09-03T23:13:21.164Z,24.58
2022-09-03T23:16:18.371Z,24.56
2022-09-03T23:22:13.565Z,24.50
2022-09-03T23:25:09.858Z,24.50
2022-09-03T23:28:02.889Z,24.48
2022-09-03T23:30:52.904Z,24.44
2022-09-03T23:33:42.457Z,24.40
2022-09-03T23:40:26.250Z,24.34
2022-09-03T23:43:53.669Z,24.32
2022-09-03T23:46:54.981Z,24.32
2022-09-03T23:49:59.062Z,24.34
2022-09-03T23:53:07.227Z,24.32
2022-09-03T23:56:17.443Z,24.29
2022-09-03T23:59:16.317Z,24.25
